Eibar, Spain
Current Conditions -  °F | °C
As of 3:00 PM on Monday 20 Oct 2014 (Local Time) from LEVT Reporting Station
Clear Clear  
Wind Chill: 75°   Ceiling: Unl
Heat Index: 75°   Visibility: 6mi
Dew Point: 57°   Wind: 7mph
Humidity: 53%   Direction: 230°SW
Pressure: 30.18"   Gusts: NA
Location:  43.18°N, 2.47°W
Report Text: LEVT 201300Z 23006KT 200V270 CAVOK 24/14 Q1022
Loading
Personal Weather Stations






























Interactive Weather Map
Tropical Storm Tracking
New forecast layout! Learn more

10-Day Weather Forecast

Advertisements
Track Severe Weather on mobile